createdAt,value
2023-05-26T00:01:21.528Z,99.90
2023-05-26T00:03:50.358Z,99.90
2023-05-26T00:06:17.853Z,99.90
2023-05-26T00:08:45.507Z,99.90
2023-05-26T00:11:13.217Z,99.90
2023-05-26T00:13:40.612Z,99.90
2023-05-26T00:16:07.965Z,99.90
2023-05-26T00:18:35.545Z,99.90
2023-05-26T00:21:02.989Z,99.90
2023-05-26T00:23:30.360Z,99.90
2023-05-26T00:25:57.951Z,99.90
2023-05-26T00:28:25.247Z,99.90
2023-05-26T00:30:52.667Z,99.90
2023-05-26T00:33:20.376Z,99.90
2023-05-26T00:35:47.907Z,99.90
2023-05-26T00:38:15.539Z,99.90
2023-05-26T00:40:43.205Z,99.90
2023-05-26T00:43:10.588Z,99.90
2023-05-26T00:45:38.077Z,99.90
2023-05-26T00:48:06.793Z,99.90
2023-05-26T00:50:35.586Z,99.90
2023-05-26T00:53:04.933Z,99.90
2023-05-26T00:55:33.750Z,99.90
2023-05-26T00:58:01.369Z,99.90
2023-05-26T01:00:29.303Z,99.90
2023-05-26T01:02:58.387Z,99.90
2023-05-26T01:05:26.471Z,99.90
2023-05-26T01:07:55.037Z,99.90
2023-05-26T01:10:22.803Z,99.90
2023-05-26T01:13:02.999Z,99.90
2023-05-26T01:15:35.277Z,99.90
2023-05-26T01:18:10.428Z,99.90
2023-05-26T01:20:47.406Z,99.90
2023-05-26T01:23:33.666Z,99.90
2023-05-26T01:26:15.380Z,99.90
2023-05-26T01:28:45.000Z,99.90
2023-05-26T01:31:14.008Z,99.90
2023-05-26T01:33:42.907Z,99.90
2023-05-26T01:36:11.495Z,99.90
2023-05-26T01:38:40.365Z,99.90
2023-05-26T01:41:36.096Z,99.90
2023-05-26T01:44:09.883Z,99.90
2023-05-26T01:46:46.149Z,99.90
2023-05-26T01:49:17.806Z,99.90
2023-05-26T01:51:57.457Z,99.90
2023-05-26T01:54:28.327Z,99.90
2023-05-26T01:56:57.806Z,99.90
2023-05-26T01:59:26.294Z,99.90
2023-05-26T02:01:53.773Z,99.90
2023-05-26T02:04:21.361Z,99.90
2023-05-26T02:06:48.726Z,99.90
2023-05-26T02:09:16.757Z,99.90
2023-05-26T02:11:44.069Z,99.90
2023-05-26T02:14:11.518Z,99.90
2023-05-26T02:16:39.021Z,99.90
2023-05-26T02:19:08.744Z,99.90
2023-05-26T02:21:36.928Z,99.90
2023-05-26T02:24:04.445Z,99.90
2023-05-26T02:26:32.293Z,99.90
2023-05-26T02:28:59.678Z,99.90
2023-05-26T02:31:27.164Z,99.90
2023-05-26T02:33:55.580Z,99.90
2023-05-26T02:36:23.064Z,99.90
2023-05-26T02:38:50.803Z,99.90
2023-05-26T02:41:18.457Z,99.90
2023-05-26T02:43:46.963Z,99.90
2023-05-26T02:46:15.055Z,99.90
2023-05-26T02:48:43.034Z,99.90
2023-05-26T02:51:10.364Z,99.90
2023-05-26T02:53:39.771Z,99.90
2023-05-26T02:56:08.034Z,99.90
2023-05-26T02:58:35.552Z,99.90
2023-05-26T03:01:04.023Z,99.90
2023-05-26T03:03:31.609Z,99.90
2023-05-26T03:05:59.871Z,99.90
2023-05-26T03:08:28.335Z,99.90
2023-05-26T03:11:09.314Z,99.90
2023-05-26T03:13:40.070Z,99.90
2023-05-26T03:16:08.014Z,99.90
2023-05-26T03:18:35.998Z,99.90
2023-05-26T03:21:06.500Z,99.90
2023-05-26T03:23:36.366Z,99.90
2023-05-26T03:26:05.223Z,99.90
2023-05-26T03:28:34.770Z,99.90
2023-05-26T03:31:02.618Z,99.90
2023-05-26T03:33:32.397Z,99.90
2023-05-26T03:36:01.358Z,99.90
2023-05-26T03:38:29.600Z,99.90
2023-05-26T03:41:00.503Z,99.90
2023-05-26T03:43:28.122Z,99.90
2023-05-26T03:45:55.804Z,99.90
2023-05-26T03:48:23.227Z,99.90
2023-05-26T03:50:50.996Z,99.90
2023-05-26T03:53:18.990Z,99.90
2023-05-26T03:55:46.576Z,99.90
2023-05-26T03:58:14.173Z,99.90
2023-05-26T04:00:41.494Z,99.90
2023-05-26T04:03:08.928Z,99.90
2023-05-26T04:05:36.832Z,99.90
2023-05-26T04:08:04.189Z,99.90
2023-05-26T04:10:31.548Z,99.90
2023-05-26T04:12:59.434Z,99.90
2023-05-26T04:15:26.817Z,99.90
2023-05-26T04:17:54.290Z,99.90
2023-05-26T04:20:21.809Z,99.90
2023-05-26T04:22:49.407Z,99.90
2023-05-26T04:25:17.911Z,99.90
2023-05-26T04:27:50.445Z,99.90
2023-05-26T04:30:31.489Z,99.90
2023-05-26T04:33:21.880Z,99.90
2023-05-26T04:36:09.805Z,99.90
2023-05-26T04:38:39.200Z,99.90
2023-05-26T04:41:08.367Z,99.90
2023-05-26T04:43:36.183Z,99.90
2023-05-26T04:46:04.442Z,99.90
2023-05-26T04:48:33.546Z,99.90
2023-05-26T04:51:00.974Z,99.90
2023-05-26T04:53:28.484Z,99.90
2023-05-26T04:55:55.902Z,99.90
2023-05-26T04:58:23.816Z,99.90
2023-05-26T05:00:51.760Z,99.90
2023-05-26T05:03:37.819Z,99.90
2023-05-26T05:06:09.141Z,99.90
2023-05-26T05:08:38.711Z,99.90
2023-05-26T05:11:06.531Z,99.90
2023-05-26T05:13:34.650Z,99.90
2023-05-26T05:16:04.656Z,99.90
2023-05-26T05:18:32.303Z,99.90
2023-05-26T05:20:59.990Z,99.90
2023-05-26T05:23:28.109Z,99.90
2023-05-26T05:25:57.032Z,99.90
2023-05-26T05:28:24.915Z,99.90
2023-05-26T05:31:08.878Z,99.90
2023-05-26T05:33:39.603Z,99.90
2023-05-26T05:36:07.415Z,99.90
2023-05-26T05:38:34.796Z,99.90
2023-05-26T05:41:02.599Z,99.90
2023-05-26T05:43:30.164Z,99.90
2023-05-26T05:45:58.206Z,99.90
2023-05-26T05:48:44.251Z,99.90
2023-05-26T05:51:18.317Z,99.90
2023-05-26T05:53:46.408Z,99.90
2023-05-26T05:56:14.535Z,99.90
2023-05-26T05:58:41.922Z,99.90
2023-05-26T06:01:09.382Z,99.90
2023-05-26T06:03:37.523Z,99.90
2023-05-26T06:06:06.519Z,99.90
2023-05-26T06:08:33.889Z,99.90
2023-05-26T06:11:01.688Z,99.90
2023-05-26T06:13:33.461Z,99.90
2023-05-26T06:16:00.879Z,99.90
2023-05-26T06:18:28.335Z,99.90
2023-05-26T06:20:56.123Z,99.90
2023-05-26T06:23:24.356Z,99.90
2023-05-26T06:25:53.817Z,99.90
2023-05-26T06:28:23.717Z,99.90
2023-05-26T06:30:51.852Z,99.90
2023-05-26T06:33:32.328Z,99.90
2023-05-26T06:36:01.167Z,99.90
2023-05-26T06:38:28.968Z,99.90
2023-05-26T06:41:01.529Z,99.90
2023-05-26T06:43:29.273Z,99.90
2023-05-26T06:45:57.130Z,99.90
2023-05-26T06:48:25.247Z,99.90
2023-05-26T06:51:15.508Z,99.90
2023-05-26T06:53:43.188Z,99.90
2023-05-26T06:56:13.242Z,99.90
2023-05-26T06:58:40.746Z,99.90
2023-05-26T07:01:09.476Z,99.90
2023-05-26T07:03:40.396Z,99.90
2023-05-26T07:06:08.631Z,99.90
2023-05-26T07:08:39.198Z,99.90
2023-05-26T07:11:20.304Z,99.90
2023-05-26T07:13:54.022Z,99.90
2023-05-26T07:16:22.799Z,99.90
2023-05-26T07:18:50.386Z,99.90
2023-05-26T07:21:20.236Z,99.90
2023-05-26T07:23:49.843Z,99.90
2023-05-26T07:26:17.357Z,99.90
2023-05-26T07:28:45.911Z,99.90
2023-05-26T07:31:13.545Z,99.90
2023-05-26T07:36:12.307Z,99.90
2023-05-26T07:38:40.003Z,99.90
2023-05-26T07:41:09.791Z,99.90
2023-05-26T07:43:37.162Z,99.90
2023-05-26T07:46:04.825Z,99.90
2023-05-26T07:48:32.253Z,99.90
2023-05-26T07:51:00.058Z,99.90
2023-05-26T07:53:27.616Z,99.90
2023-05-26T07:55:55.125Z,99.90
2023-05-26T07:58:22.970Z,99.90
2023-05-26T08:00:50.402Z,99.90
2023-05-26T08:03:18.274Z,99.90
2023-05-26T08:08:14.201Z,99.90
2023-05-26T08:10:41.656Z,99.90
2023-05-26T08:13:10.321Z,99.90
2023-05-26T08:15:38.245Z,99.90
2023-05-26T08:18:05.959Z,99.90
2023-05-26T08:20:36.299Z,99.90
2023-05-26T08:23:04.216Z,99.90
2023-05-26T08:25:32.048Z,99.90
2023-05-26T08:27:59.392Z,99.90
2023-05-26T08:30:27.602Z,99.90
2023-05-26T08:32:55.242Z,99.90
2023-05-26T08:35:22.779Z,99.90
2023-05-26T08:37:51.480Z,99.90
2023-05-26T08:40:19.025Z,99.90
2023-05-26T08:42:50.592Z,99.90
2023-05-26T08:45:21.547Z,99.90
2023-05-26T08:47:51.069Z,99.90
2023-05-26T08:50:20.710Z,99.90
2023-05-26T08:55:37.295Z,99.90
2023-05-26T08:58:05.582Z,99.90
2023-05-26T09:00:34.391Z,99.90
2023-05-26T09:03:04.297Z,99.90
2023-05-26T09:05:31.934Z,99.90
2023-05-26T09:07:59.634Z,99.90
2023-05-26T09:10:30.444Z,99.90
2023-05-26T09:13:07.642Z,99.90
2023-05-26T09:15:37.602Z,99.90
2023-05-26T09:18:07.795Z,99.90
2023-05-26T09:20:41.997Z,99.90
2023-05-26T09:23:10.557Z,99.90
2023-05-26T09:25:39.700Z,99.90
2023-05-26T09:28:09.554Z,99.90
2023-05-26T09:30:38.098Z,99.90
2023-05-26T09:33:16.232Z,99.90
2023-05-26T09:35:45.832Z,99.90
2023-05-26T09:38:18.472Z,99.90
2023-05-26T09:40:48.144Z,99.90
2023-05-26T09:43:19.715Z,99.90
2023-05-26T09:45:47.174Z,99.90
2023-05-26T09:48:16.069Z,99.90
2023-05-26T09:50:43.805Z,99.90
2023-05-26T09:53:11.989Z,99.90
2023-05-26T09:55:41.718Z,99.90
2023-05-26T09:58:11.499Z,99.90
2023-05-26T10:00:43.772Z,99.90
2023-05-26T10:03:12.341Z,99.90
2023-05-26T10:05:46.564Z,99.90
2023-05-26T10:08:20.630Z,99.90
2023-05-26T10:10:51.697Z,99.90
2023-05-26T10:13:20.689Z,99.90
2023-05-26T10:15:49.292Z,99.90
2023-05-26T10:18:16.862Z,99.90
2023-05-26T10:20:48.864Z,99.90
2023-05-26T10:23:28.168Z,99.90
2023-05-26T10:26:10.076Z,99.90
2023-05-26T10:28:50.926Z,99.90
2023-05-26T10:31:32.517Z,99.90
2023-05-26T10:36:29.685Z,99.90
2023-05-26T10:38:57.199Z,99.90
2023-05-26T10:41:30.531Z,99.90
2023-05-26T10:43:59.219Z,99.90
2023-05-26T10:46:38.674Z,99.90
2023-05-26T10:49:20.764Z,99.90
2023-05-26T10:51:54.315Z,99.90
2023-05-26T10:54:25.692Z,99.90
2023-05-26T10:56:54.583Z,99.90
2023-05-26T10:59:33.412Z,99.90
2023-05-26T11:02:05.909Z,99.90
2023-05-26T11:04:44.472Z,99.90
2023-05-26T11:07:21.980Z,99.90
2023-05-26T11:10:03.071Z,99.90
2023-05-26T11:12:35.080Z,99.90
2023-05-26T11:15:34.115Z,99.90
2023-05-26T11:18:09.482Z,99.90
2023-05-26T11:23:05.253Z,99.90
2023-05-26T11:25:48.072Z,99.90
2023-05-26T11:28:19.837Z,99.90
2023-05-26T11:30:47.136Z,99.90
2023-05-26T11:33:15.893Z,99.90
2023-05-26T11:35:43.720Z,99.90
2023-05-26T11:38:11.265Z,99.90
2023-05-26T11:40:38.899Z,99.90
2023-05-26T11:43:06.344Z,99.10
2023-05-26T11:45:35.174Z,99.40
2023-05-26T11:48:02.557Z,98.70
2023-05-26T11:50:29.984Z,99.20
2023-05-26T11:52:57.349Z,98.40
2023-05-26T11:55:24.780Z,98.40
2023-05-26T11:57:52.551Z,98.70
2023-05-26T12:00:20.662Z,99.50
2023-05-26T12:02:48.742Z,99.40
2023-05-26T12:05:20.980Z,99.50
2023-05-26T12:08:05.403Z,97.80
2023-05-26T12:13:01.575Z,97.10
2023-05-26T12:15:29.028Z,97.00
2023-05-26T12:18:01.649Z,99.90
2023-05-26T12:23:03.944Z,97.40
2023-05-26T12:25:32.749Z,96.40
2023-05-26T12:28:00.692Z,96.10
2023-05-26T12:30:44.210Z,94.30
2023-05-26T12:33:16.827Z,95.10
2023-05-26T12:35:44.162Z,96.20
2023-05-26T12:38:15.031Z,95.30
2023-05-26T12:40:43.074Z,95.40
2023-05-26T12:43:10.735Z,94.20
2023-05-26T12:45:38.094Z,95.30
2023-05-26T12:48:05.656Z,95.60
2023-05-26T12:50:33.026Z,94.70
2023-05-26T12:53:00.515Z,93.60
2023-05-26T12:55:27.952Z,93.70
2023-05-26T12:57:55.271Z,92.90
2023-05-26T13:00:22.827Z,93.00
2023-05-26T13:05:19.375Z,92.20
2023-05-26T13:07:46.719Z,92.60
2023-05-26T13:10:14.029Z,93.60
2023-05-26T13:12:42.617Z,92.70
2023-05-26T13:15:10.552Z,93.40
2023-05-26T13:17:38.031Z,91.90
2023-05-26T13:20:06.890Z,92.20
2023-05-26T13:22:37.147Z,91.80
2023-05-26T13:25:04.857Z,91.30
2023-05-26T13:27:32.172Z,90.60
2023-05-26T13:29:59.510Z,99.90
2023-05-26T13:32:27.008Z,90.80
2023-05-26T13:34:54.319Z,91.20
2023-05-26T13:37:22.204Z,89.20
2023-05-26T13:39:49.727Z,89.70
2023-05-26T13:42:17.109Z,90.40
2023-05-26T13:44:44.791Z,90.30
2023-05-26T13:47:12.147Z,90.40
2023-05-26T13:49:39.497Z,87.50
2023-05-26T13:52:07.474Z,88.30
2023-05-26T13:54:34.841Z,88.90
2023-05-26T13:57:02.458Z,89.20
2023-05-26T13:59:31.255Z,90.10
2023-05-26T14:01:58.714Z,88.90
2023-05-26T14:04:27.571Z,90.20
2023-05-26T14:07:04.243Z,86.80
2023-05-26T14:09:42.013Z,85.10
2023-05-26T14:12:09.685Z,87.10
2023-05-26T14:14:37.702Z,86.70
2023-05-26T14:17:05.247Z,85.40
2023-05-26T14:19:32.811Z,85.80
2023-05-26T14:22:01.709Z,86.30
2023-05-26T14:24:33.095Z,84.80
2023-05-26T14:27:00.560Z,85.50
2023-05-26T14:29:28.397Z,86.90
2023-05-26T14:31:56.024Z,85.60
2023-05-26T14:34:23.391Z,83.40
2023-05-26T14:36:51.166Z,85.20
2023-05-26T14:39:18.702Z,84.80
2023-05-26T14:41:46.036Z,84.90
2023-05-26T14:44:13.555Z,83.80
2023-05-26T14:46:41.252Z,83.50
2023-05-26T14:49:11.767Z,83.00
2023-05-26T14:51:39.461Z,82.60
2023-05-26T14:54:07.543Z,84.20
2023-05-26T14:56:35.579Z,84.40
2023-05-26T14:59:03.545Z,83.30
2023-05-26T15:01:31.017Z,83.30
2023-05-26T15:04:13.566Z,82.40
2023-05-26T15:06:43.148Z,83.60
2023-05-26T15:09:10.619Z,83.70
2023-05-26T15:11:42.337Z,83.70
2023-05-26T15:14:10.993Z,82.90
2023-05-26T15:16:39.829Z,82.10
2023-05-26T15:19:07.329Z,83.20
2023-05-26T15:21:38.680Z,83.20
2023-05-26T15:24:08.086Z,82.90
2023-05-26T15:26:36.153Z,81.80
2023-05-26T15:29:03.780Z,82.00
2023-05-26T15:31:31.423Z,81.70
2023-05-26T15:33:59.153Z,82.70
2023-05-26T15:36:26.926Z,82.90
2023-05-26T15:38:54.784Z,82.40
2023-05-26T15:41:26.217Z,81.50
2023-05-26T15:43:55.372Z,83.70
2023-05-26T15:46:22.802Z,83.70
2023-05-26T15:48:50.289Z,84.30
2023-05-26T15:51:17.888Z,83.90
2023-05-26T15:53:45.477Z,84.30
2023-05-26T15:56:12.949Z,84.90
2023-05-26T15:58:40.484Z,85.60
2023-05-26T16:01:08.008Z,84.40
2023-05-26T16:03:35.830Z,85.80
2023-05-26T16:06:04.532Z,86.50
2023-05-26T16:08:31.859Z,85.60
2023-05-26T16:10:59.545Z,86.50
2023-05-26T16:13:27.153Z,86.40
2023-05-26T16:15:54.937Z,86.50
2023-05-26T16:18:22.349Z,87.40
2023-05-26T16:20:50.027Z,87.20
2023-05-26T16:23:17.664Z,87.50
2023-05-26T16:25:46.256Z,87.40
2023-05-26T16:28:13.667Z,87.80
2023-05-26T16:30:41.414Z,86.70
2023-05-26T16:33:08.747Z,87.40
2023-05-26T16:35:50.322Z,88.30
2023-05-26T16:38:18.985Z,88.40
2023-05-26T16:40:46.637Z,88.40
2023-05-26T16:43:17.049Z,88.50
2023-05-26T16:45:47.391Z,89.20
2023-05-26T16:48:14.798Z,88.90
2023-05-26T16:50:42.174Z,89.20
2023-05-26T16:53:11.100Z,88.70
2023-05-26T16:55:38.646Z,88.80
2023-05-26T16:58:07.309Z,89.20
2023-05-26T17:00:34.647Z,89.30
2023-05-26T17:03:02.330Z,89.40
2023-05-26T17:05:29.757Z,88.80
2023-05-26T17:07:59.063Z,88.70
2023-05-26T17:10:28.712Z,88.80
2023-05-26T17:12:57.758Z,89.40
2023-05-26T17:15:25.360Z,89.60
2023-05-26T17:17:53.009Z,89.50
2023-05-26T17:20:20.562Z,88.70
2023-05-26T17:22:48.232Z,89.30
2023-05-26T17:25:15.995Z,87.60
2023-05-26T17:27:43.382Z,87.60
2023-05-26T17:30:11.070Z,88.20
2023-05-26T17:32:38.455Z,88.40
2023-05-26T17:35:06.649Z,87.30
2023-05-26T17:37:34.144Z,87.60
2023-05-26T17:40:01.601Z,87.10
2023-05-26T17:42:28.937Z,88.30
2023-05-26T17:44:56.361Z,88.80
2023-05-26T17:47:27.711Z,89.80
2023-05-26T17:49:58.303Z,90.10
2023-05-26T17:52:25.955Z,90.10
2023-05-26T17:54:53.493Z,90.70
2023-05-26T17:57:20.838Z,90.70
2023-05-26T17:59:48.194Z,90.60
2023-05-26T18:02:15.745Z,90.50
2023-05-26T18:04:43.670Z,90.60
2023-05-26T18:07:11.605Z,91.20
2023-05-26T18:09:40.884Z,91.40
2023-05-26T18:12:11.264Z,91.70
2023-05-26T18:14:38.648Z,91.80
2023-05-26T18:17:05.988Z,92.30
2023-05-26T18:19:33.556Z,92.50
2023-05-26T18:22:01.894Z,92.50
2023-05-26T18:24:29.594Z,92.40
2023-05-26T18:26:57.164Z,92.50
2023-05-26T18:29:24.502Z,93.00
2023-05-26T18:31:52.032Z,93.00
2023-05-26T18:34:25.506Z,92.90
2023-05-26T18:36:53.456Z,93.70
2023-05-26T18:39:20.813Z,93.90
2023-05-26T18:41:48.151Z,93.70
2023-05-26T18:46:43.230Z,93.60
2023-05-26T18:49:11.649Z,94.20
2023-05-26T18:51:39.057Z,94.00
2023-05-26T18:54:06.530Z,94.20
2023-05-26T18:56:33.858Z,94.40
2023-05-26T18:59:01.539Z,94.70
2023-05-26T19:01:28.911Z,94.60
2023-05-26T19:03:58.235Z,95.00
2023-05-26T19:06:25.760Z,95.50
2023-05-26T19:08:53.227Z,96.00
2023-05-26T19:11:20.674Z,99.90
2023-05-26T19:13:48.035Z,96.50
2023-05-26T19:16:15.811Z,96.70
2023-05-26T19:18:43.153Z,96.70
2023-05-26T19:21:10.502Z,96.20
2023-05-26T19:23:37.767Z,96.20
2023-05-26T19:26:05.148Z,96.10
2023-05-26T19:28:32.666Z,96.00
2023-05-26T19:31:00.568Z,96.20
2023-05-26T19:33:27.981Z,96.10
2023-05-26T19:35:55.615Z,96.20
2023-05-26T19:38:22.970Z,96.60
2023-05-26T19:40:50.259Z,96.60
2023-05-26T19:45:45.358Z,97.50
2023-05-26T19:48:12.867Z,98.80
2023-05-26T19:50:40.790Z,98.90
2023-05-26T19:53:08.077Z,99.40
2023-05-26T19:55:35.414Z,99.70
2023-05-26T19:58:02.837Z,99.90
2023-05-26T20:00:30.186Z,99.90
2023-05-26T20:02:57.820Z,99.90
2023-05-26T20:05:25.540Z,99.90
2023-05-26T20:07:52.869Z,99.90
2023-05-26T20:10:20.340Z,99.90
2023-05-26T20:12:47.808Z,99.90
2023-05-26T20:15:15.791Z,99.90
2023-05-26T20:17:43.184Z,99.90
2023-05-26T20:20:14.453Z,99.90
2023-05-26T20:22:43.841Z,99.90
2023-05-26T20:25:11.886Z,99.90
2023-05-26T20:27:39.665Z,99.90
2023-05-26T20:30:08.121Z,99.90
2023-05-26T20:32:36.629Z,99.90
2023-05-26T20:35:04.977Z,99.90
2023-05-26T20:37:32.746Z,99.90
2023-05-26T20:40:01.431Z,99.90
2023-05-26T20:42:33.761Z,99.90
2023-05-26T20:45:04.152Z,99.90
2023-05-26T20:47:31.985Z,99.90
2023-05-26T20:49:59.383Z,99.90
2023-05-26T20:52:26.787Z,99.90
2023-05-26T20:57:22.604Z,99.90
2023-05-26T20:59:50.121Z,99.90
2023-05-26T21:02:17.742Z,99.90
2023-05-26T21:04:45.377Z,99.90
2023-05-26T21:07:13.055Z,99.90
2023-05-26T21:09:40.509Z,99.90
2023-05-26T21:12:08.030Z,99.90
2023-05-26T21:14:36.509Z,99.90
2023-05-26T21:17:04.094Z,99.90
2023-05-26T21:19:31.768Z,99.90
2023-05-26T21:21:59.121Z,99.90
2023-05-26T21:24:26.496Z,99.90
2023-05-26T21:26:54.096Z,99.90
2023-05-26T21:29:21.464Z,99.90
2023-05-26T21:31:48.863Z,99.90
2023-05-26T21:36:43.903Z,99.90
2023-05-26T21:39:11.465Z,99.90
2023-05-26T21:41:39.625Z,99.90
2023-05-26T21:44:07.893Z,99.90
2023-05-26T21:46:35.377Z,99.90
2023-05-26T21:49:02.886Z,99.90
2023-05-26T21:51:30.388Z,99.90
2023-05-26T21:53:57.726Z,99.90
2023-05-26T21:56:26.120Z,99.90
2023-05-26T21:58:53.607Z,99.90
2023-05-26T22:01:21.959Z,99.90
2023-05-26T22:03:49.388Z,99.90
2023-05-26T22:06:16.887Z,99.90
2023-05-26T22:08:44.353Z,99.90
2023-05-26T22:11:12.115Z,99.90
2023-05-26T22:13:39.830Z,99.90
2023-05-26T22:16:07.201Z,99.90
2023-05-26T22:18:34.691Z,99.90
2023-05-26T22:21:02.297Z,99.90
2023-05-26T22:23:29.824Z,99.90
2023-05-26T22:25:57.468Z,99.90
2023-05-26T22:28:24.945Z,99.90
2023-05-26T22:31:00.018Z,99.90
2023-05-26T22:33:27.535Z,99.90
2023-05-26T22:35:55.412Z,99.90
2023-05-26T22:38:23.164Z,99.90
2023-05-26T22:40:50.662Z,99.90
2023-05-26T22:43:18.259Z,99.90
2023-05-26T22:45:45.740Z,99.90
2023-05-26T22:48:13.887Z,99.90
2023-05-26T22:50:41.595Z,99.90
2023-05-26T22:53:09.107Z,99.90
2023-05-26T22:55:47.109Z,99.90
2023-05-26T22:58:18.843Z,99.90
2023-05-26T23:00:46.740Z,99.90
2023-05-26T23:03:14.335Z,99.90
2023-05-26T23:05:41.726Z,99.90
2023-05-26T23:08:09.276Z,99.90
2023-05-26T23:10:37.731Z,99.90
2023-05-26T23:13:05.139Z,99.90
2023-05-26T23:15:32.564Z,99.90
2023-05-26T23:18:00.052Z,99.90
2023-05-26T23:20:27.784Z,99.90
2023-05-26T23:22:55.313Z,99.90
2023-05-26T23:25:22.691Z,99.90
2023-05-26T23:27:50.094Z,99.90
2023-05-26T23:30:17.619Z,99.90
2023-05-26T23:32:45.065Z,99.90
2023-05-26T23:35:12.460Z,99.90
2023-05-26T23:37:39.952Z,99.90
2023-05-26T23:40:08.724Z,99.90
2023-05-26T23:42:36.393Z,99.90
2023-05-26T23:45:04.222Z,99.90
2023-05-26T23:47:31.738Z,99.90
2023-05-26T23:49:59.166Z,99.90
2023-05-26T23:52:26.610Z,99.90
2023-05-26T23:54:53.930Z,99.90
2023-05-26T23:59:48.922Z,99.90
